Time;durP1;ratioP1;P1;durP2;ratioP2;P2;SDS_P1;SDS_P2;PMS_P1;PMS_P2;Temp;Humidity;BMP_temperature;BMP_pressure;BME280_temperature;BME280_humidity;BME280_pressure;Samples;Min_cycle;Max_cycle;Signal;HPM_P1;HPM_P2
2023/04/27 00:02:25;;;;;;;7.57;6.80;;;6.30;1.00;;;;;;5031751;28;20195;-63
2023/04/27 00:04:51;;;;;;;7.60;6.73;;;6.20;1.00;;;;;;5031762;28;20187;-63
2023/04/27 00:07:16;;;;;;;6.50;5.90;;;6.20;1.00;;;;;;5031940;28;20673;-63
2023/04/27 00:09:42;;;;;;;6.77;6.37;;;6.10;1.00;;;;;;5031239;28;20223;-62
2023/04/27 00:12:07;;;;;;;7.00;6.53;;;6.10;1.00;;;;;;5031668;28;20195;-63
2023/04/27 00:14:33;;;;;;;6.90;6.50;;;6.00;1.00;;;;;;5031768;28;20182;-63
2023/04/27 00:16:58;;;;;;;8.07;7.17;;;5.90;20.90;;;;;;5031519;28;20178;-63
2023/04/27 00:19:24;;;;;;;7.30;6.70;;;5.90;99.90;;;;;;5031076;28;20202;-63
2023/04/27 00:21:50;;;;;;;7.33;6.73;;;5.80;99.90;;;;;;5031322;28;20645;-63
2023/04/27 00:24:15;;;;;;;7.20;6.50;;;5.80;1.00;;;;;;5031715;28;20183;-63
2023/04/27 00:26:41;;;;;;;8.07;7.30;;;5.70;1.00;;;;;;5031225;28;20176;-63
2023/04/27 00:29:07;;;;;;;11.77;8.40;;;5.70;1.00;;;;;;5031356;28;20552;-63
2023/04/27 00:31:32;;;;;;;7.27;6.87;;;5.70;77.70;;;;;;5031082;28;20210;-64
2023/04/27 00:33:58;;;;;;;7.77;7.27;;;5.70;82.90;;;;;;5031466;28;20171;-63
2023/04/27 00:36:23;;;;;;;7.60;6.83;;;5.70;99.90;;;;;;5031724;28;20179;-62
2023/04/27 00:38:49;;;;;;;8.50;7.80;;;5.70;1.00;;;;;;5031206;28;20191;-63
2023/04/27 00:41:15;;;;;;;7.30;6.77;;;5.70;99.90;;;;;;5030973;28;20175;-63
2023/04/27 00:43:44;;;;;;;7.23;6.73;;;5.80;1.00;;;;;;5030915;28;20206;-63
2023/04/27 00:46:12;;;;;;;8.43;7.63;;;5.80;99.90;;;;;;5030002;28;20657;-63
2023/04/27 00:48:38;;;;;;;7.37;6.87;;;5.90;99.90;;;;;;5030346;28;20210;-62
2023/04/27 00:51:05;;;;;;;7.40;6.80;;;5.90;1.00;;;;;;5030688;28;20168;-63
2023/04/27 00:53:31;;;;;;;7.27;6.57;;;5.90;1.00;;;;;;5030939;28;20225;-63
2023/04/27 00:55:57;;;;;;;8.37;7.53;;;6.00;1.00;;;;;;5030924;28;20172;-63
2023/04/27 00:58:23;;;;;;;6.93;6.40;;;6.10;1.00;;;;;;5031035;28;20559;-63
2023/04/27 01:00:49;;;;;;;7.83;7.23;;;6.00;1.00;;;;;;5030895;28;20203;-63
2023/04/27 01:03:16;;;;;;;8.40;7.70;;;6.10;99.90;;;;;;5031134;28;20796;-63
2023/04/27 01:05:42;;;;;;;7.23;6.73;;;6.10;99.90;;;;;;5030962;28;20258;-63
2023/04/27 01:08:08;;;;;;;7.57;6.70;;;6.00;99.90;;;;;;5030418;28;20310;-62
2023/04/27 01:10:34;;;;;;;9.00;6.93;;;6.00;99.90;;;;;;5030797;28;20167;-62
2023/04/27 01:13:00;;;;;;;7.00;6.33;;;5.90;99.90;;;;;;5031061;28;20262;-63
2023/04/27 01:15:26;;;;;;;12.87;6.97;;;5.90;99.90;;;;;;5030906;28;20310;-63
2023/04/27 01:17:59;;;;;;;7.47;6.87;;;5.80;1.00;;;;;;5030759;28;20619;-63
2023/04/27 01:20:29;;;;;;;9.47;6.83;;;5.80;1.00;;;;;;5030844;28;20164;-64
2023/04/27 01:22:55;;;;;;;7.63;7.10;;;5.80;1.00;;;;;;5031028;28;20195;-63
2023/04/27 01:25:20;;;;;;;6.67;6.20;;;5.70;1.00;;;;;;5031001;28;20707;-62
2023/04/27 01:27:46;;;;;;;7.47;6.87;;;5.70;99.90;;;;;;5030215;28;20215;-63
2023/04/27 01:30:12;;;;;;;8.17;6.83;;;5.60;1.00;;;;;;5030721;28;20207;-63
2023/04/27 01:32:37;;;;;;;7.77;7.07;;;5.40;99.90;;;;;;5030534;28;20176;-63
2023/04/27 01:35:04;;;;;;;7.60;7.00;;;5.40;99.90;;;;;;5031077;28;20176;-63
2023/04/27 01:37:30;;;;;;;12.67;7.00;;;5.30;99.90;;;;;;5030271;28;20210;-63
2023/04/27 01:39:56;;;;;;;7.70;7.10;;;5.20;1.00;;;;;;5030592;28;20214;-64
2023/04/27 01:42:21;;;;;;;7.40;6.80;;;5.10;99.90;;;;;;5030596;28;20231;-63
2023/04/27 01:44:47;;;;;;;7.40;6.70;;;5.00;99.90;;;;;;5030862;28;20202;-63
2023/04/27 01:47:15;;;;;;;8.50;7.80;;;5.00;99.90;;;;;;5030376;28;20194;-63
2023/04/27 01:49:41;;;;;;;8.20;7.50;;;4.90;1.00;;;;;;5030280;28;20272;-63
2023/04/27 01:52:06;;;;;;;7.43;6.93;;;4.90;1.00;;;;;;5030540;28;20709;-63
2023/04/27 01:54:32;;;;;;;7.27;6.57;;;4.80;1.00;;;;;;5030543;28;20851;-63
2023/04/27 01:56:57;;;;;;;8.37;7.57;;;4.80;1.00;;;;;;5030791;28;20588;-62
2023/04/27 01:59:23;;;;;;;9.67;6.70;;;4.70;99.90;;;;;;5031882;28;20266;-63
2023/04/27 02:01:48;;;;;;;8.27;7.13;;;4.70;4.40;;;;;;5034348;28;20174;-63
2023/04/27 02:04:14;;;;;;;8.77;7.97;;;4.60;99.90;;;;;;5033953;28;20206;-63
2023/04/27 02:06:40;;;;;;;9.80;8.10;;;4.60;99.90;;;;;;5034058;28;20225;-63
2023/04/27 02:09:06;;;;;;;9.20;8.10;;;4.60;1.00;;;;;;5034075;28;20194;-64
2023/04/27 02:11:31;;;;;;;8.07;7.57;;;4.50;99.90;;;;;;5033498;28;20171;-63
2023/04/27 02:13:57;;;;;;;7.73;7.03;;;4.50;99.90;;;;;;5034073;28;20175;-63
2023/04/27 02:16:22;;;;;;;10.27;7.80;;;4.50;99.90;;;;;;5033742;28;20270;-63
2023/04/27 02:18:48;;;;;;;8.67;7.87;;;4.40;99.90;;;;;;5033827;28;20553;-63
2023/04/27 02:21:14;;;;;;;8.80;8.17;;;4.40;50.90;;;;;;5033556;28;20187;-63
2023/04/27 02:23:39;;;;;;;8.20;7.50;;;4.30;88.90;;;;;;5033557;28;20210;-63
2023/04/27 02:26:05;;;;;;;9.63;8.03;;;4.30;99.90;;;;;;5033621;28;20181;-63
2023/04/27 02:28:31;;;;;;;8.47;7.77;;;4.20;99.90;;;;;;5033569;28;20277;-63
2023/04/27 02:30:57;;;;;;;9.43;8.77;;;4.20;1.00;;;;;;5033358;28;20177;-63
2023/04/27 02:33:23;;;;;;;8.80;8.20;;;4.10;99.90;;;;;;5033630;28;20426;-63
2023/04/27 02:35:48;;;;;;;12.73;8.50;;;4.10;99.90;;;;;;5033249;28;20214;-63
2023/04/27 02:38:14;;;;;;;8.93;8.33;;;4.00;99.90;;;;;;5033670;28;20206;-63
2023/04/27 02:40:40;;;;;;;10.47;9.67;;;4.00;99.90;;;;;;5033279;28;20220;-63
2023/04/27 02:43:05;;;;;;;10.83;10.13;;;3.90;99.90;;;;;;5033482;28;20286;-62
2023/04/27 02:45:31;;;;;;;11.23;10.53;;;3.90;99.90;;;;;;5032921;28;20175;-63
2023/04/27 02:47:57;;;;;;;11.70;11.00;;;3.90;1.00;;;;;;5033309;28;20196;-63
2023/04/27 02:50:22;;;;;;;16.23;11.43;;;3.80;99.90;;;;;;5032854;28;20224;-64
2023/04/27 02:52:48;;;;;;;11.77;10.80;;;3.80;1.00;;;;;;5033059;28;20187;-63
2023/04/27 02:55:14;;;;;;;10.17;9.47;;;3.70;1.00;;;;;;5033470;28;20623;-63
2023/04/27 02:57:40;;;;;;;11.33;10.23;;;3.60;1.00;;;;;;5032706;28;20191;-63
2023/04/27 03:00:08;;;;;;;13.80;10.60;;;3.60;99.90;;;;;;5031969;28;20178;-63
2023/04/27 03:02:33;;;;;;;12.37;11.37;;;3.60;99.90;;;;;;5032786;28;20199;-63
2023/04/27 03:04:59;;;;;;;12.03;10.97;;;3.50;1.00;;;;;;5033052;28;20179;-63
2023/04/27 03:07:24;;;;;;;12.13;11.23;;;3.50;1.00;;;;;;5032765;28;20541;-61
2023/04/27 03:09:50;;;;;;;11.23;10.43;;;3.50;1.00;;;;;;5032449;28;20175;-63
2023/04/27 03:12:16;;;;;;;11.53;10.67;;;3.40;1.00;;;;;;5032120;28;20582;-63
2023/04/27 03:14:41;;;;;;;9.87;9.27;;;3.50;1.00;;;;;;5032858;28;20183;-63
2023/04/27 03:17:07;;;;;;;10.97;10.20;;;3.50;1.00;;;;;;5032625;28;20176;-63
2023/04/27 03:19:32;;;;;;;9.77;9.10;;;3.40;1.00;;;;;;5032893;28;20257;-63
2023/04/27 03:21:58;;;;;;;9.40;8.77;;;3.50;1.00;;;;;;5032320;28;20673;-62
2023/04/27 03:24:24;;;;;;;11.03;9.93;;;3.50;1.00;;;;;;5032702;28;20172;-63
2023/04/27 03:26:51;;;;;;;10.13;8.50;;;3.50;1.00;;;;;;5032673;28;20195;-63
2023/04/27 03:29:17;;;;;;;9.50;8.80;;;3.40;1.00;;;;;;5032743;28;20281;-63
2023/04/27 03:31:43;;;;;;;12.40;8.60;;;3.40;1.00;;;;;;5032152;28;20191;-63
2023/04/27 03:34:08;;;;;;;9.87;8.93;;;3.40;1.00;;;;;;5032526;28;20182;-63
2023/04/27 03:36:34;;;;;;;11.73;9.33;;;3.40;1.00;;;;;;5031684;28;20179;-62
2023/04/27 03:39:00;;;;;;;11.03;10.27;;;3.40;1.00;;;;;;5032144;28;20257;-63
2023/04/27 03:41:26;;;;;;;10.50;9.67;;;3.40;1.00;;;;;;5031802;28;20591;-63
2023/04/27 03:43:52;;;;;;;10.73;10.03;;;3.30;1.00;;;;;;5030887;28;20230;-63
2023/04/27 03:46:18;;;;;;;11.47;10.63;;;3.30;1.00;;;;;;5032322;28;20198;-63
2023/04/27 03:48:45;;;;;;;11.80;8.80;;;3.30;1.00;;;;;;5032044;28;20191;-63
2023/04/27 03:51:11;;;;;;;10.93;9.47;;;3.30;1.00;;;;;;5031542;28;20225;-63
2023/04/27 03:53:37;;;;;;;10.50;9.60;;;3.30;1.00;;;;;;5031869;28;20178;-63
2023/04/27 03:56:02;;;;;;;9.33;8.60;;;3.30;1.00;;;;;;5031873;28;20329;-64
2023/04/27 03:58:28;;;;;;;12.07;10.53;;;3.20;1.00;;;;;;5031913;28;20199;-63
2023/04/27 04:00:53;;;;;;;10.97;10.23;;;3.30;1.00;;;;;;5031624;28;20263;-63
2023/04/27 04:03:19;;;;;;;12.27;11.23;;;3.30;1.00;;;;;;5030557;28;20203;-63
2023/04/27 04:05:45;;;;;;;12.70;11.57;;;3.30;1.00;;;;;;5031461;28;20656;-64
2023/04/27 04:08:12;;;;;;;10.27;9.20;;;3.30;1.00;;;;;;5031864;28;20619;-63
2023/04/27 04:10:38;;;;;;;9.07;8.17;;;3.30;1.00;;;;;;5031519;28;20237;-64
2023/04/27 04:13:03;;;;;;;9.93;8.97;;;3.30;1.00;;;;;;5031306;28;20229;-64
2023/04/27 04:15:29;;;;;;;9.77;9.10;;;3.30;1.00;;;;;;5031667;28;20213;-63
2023/04/27 04:17:55;;;;;;;8.90;8.30;;;3.30;1.00;;;;;;5031065;28;20203;-63
2023/04/27 04:20:21;;;;;;;8.33;7.83;;;3.30;1.00;;;;;;5031357;28;20176;-64
2023/04/27 04:22:46;;;;;;;9.90;9.00;;;3.30;1.00;;;;;;5030276;28;20229;-64
2023/04/27 04:25:12;;;;;;;9.77;8.87;;;3.30;1.00;;;;;;5031433;28;20176;-64
2023/04/27 04:27:38;;;;;;;9.50;8.70;;;3.20;1.00;;;;;;5030824;28;20206;-63
2023/04/27 04:30:05;;;;;;;10.90;9.80;;;3.20;1.00;;;;;;5031235;28;20274;-63
2023/04/27 04:32:32;;;;;;;9.33;8.53;;;3.30;1.00;;;;;;5031328;28;20610;-63
2023/04/27 04:35:00;;;;;;;9.30;8.40;;;3.30;1.00;;;;;;5031249;28;20545;-63
2023/04/27 04:37:26;;;;;;;10.83;9.93;;;3.30;1.00;;;;;;5031506;28;20202;-64
2023/04/27 04:39:51;;;;;;;12.37;9.70;;;3.30;1.00;;;;;;5029723;28;20225;-64
2023/04/27 04:42:17;;;;;;;13.13;11.17;;;3.40;1.00;;;;;;5031551;28;20184;-64
2023/04/27 04:44:43;;;;;;;10.50;9.70;;;3.40;1.00;;;;;;5031022;28;20190;-64
2023/04/27 04:47:09;;;;;;;10.17;9.60;;;3.50;1.00;;;;;;5031399;28;20175;-63
2023/04/27 04:49:35;;;;;;;10.73;9.63;;;3.50;1.00;;;;;;5030743;28;20249;-64
2023/04/27 04:52:02;;;;;;;10.30;9.40;;;3.60;1.00;;;;;;5031329;28;20179;-64
2023/04/27 04:54:28;;;;;;;10.33;9.30;;;3.70;1.00;;;;;;5030953;28;20282;-64
2023/04/27 04:56:54;;;;;;;11.07;9.90;;;3.70;1.00;;;;;;5031303;28;20270;-62
2023/04/27 04:59:19;;;;;;;10.33;9.43;;;3.80;1.00;;;;;;5030777;28;20207;-62
2023/04/27 05:01:45;;;;;;;10.03;9.23;;;3.90;1.00;;;;;;5030701;28;20186;-63
2023/04/27 05:04:10;;;;;;;13.40;8.83;;;3.90;1.00;;;;;;5031152;28;20215;-63
2023/04/27 05:06:36;;;;;;;11.07;9.97;;;4.00;1.00;;;;;;5030686;28;20689;-64
2023/04/27 05:09:03;;;;;;;14.13;9.47;;;4.10;1.00;;;;;;5031116;28;20270;-64
2023/04/27 05:11:28;;;;;;;21.57;8.53;;;4.10;1.00;;;;;;5030659;28;20187;-64
2023/04/27 05:13:54;;;;;;;10.90;9.80;;;4.20;1.00;;;;;;5031102;28;20190;-63
2023/04/27 05:16:20;;;;;;;9.37;8.57;;;4.30;1.00;;;;;;5031032;28;20645;-63
2023/04/27 05:18:45;;;;;;;9.50;8.67;;;4.40;1.00;;;;;;5030855;28;20206;-63
2023/04/27 05:21:15;;;;;;;10.30;9.27;;;4.50;1.00;;;;;;5030441;28;20219;-63
2023/04/27 05:23:40;;;;;;;9.87;9.00;;;4.60;1.00;;;;;;5030715;28;20633;-64
2023/04/27 05:26:17;;;;;;;9.20;8.50;;;4.70;99.90;;;;;;5030654;28;20171;-64
2023/04/27 05:28:43;;;;;;;10.43;9.43;;;4.70;98.40;;;;;;5030547;28;20223;-63
2023/04/27 05:31:09;;;;;;;9.77;8.83;;;4.80;99.90;;;;;;5028873;28;20215;-64
2023/04/27 05:33:34;;;;;;;10.03;9.03;;;4.90;1.00;;;;;;5029001;28;20251;-64
2023/04/27 05:36:00;;;;;;;10.70;9.70;;;5.10;1.00;;;;;;5034615;28;20229;-63
2023/04/27 05:38:26;;;;;;;11.57;9.70;;;5.10;1.00;;;;;;5034096;28;20270;-63
2023/04/27 05:40:56;;;;;;;10.63;9.60;;;5.20;1.00;;;;;;5034079;28;20188;-63
2023/04/27 05:43:22;;;;;;;10.57;8.03;;;5.30;99.90;;;;;;5034260;28;20202;-63
2023/04/27 05:45:48;;;;;;;11.63;9.23;;;5.40;1.00;;;;;;5033168;28;20190;-63
2023/04/27 05:48:13;;;;;;;9.93;8.80;;;5.50;1.00;;;;;;5033760;28;20207;-63
2023/04/27 05:50:39;;;;;;;14.60;9.37;;;5.60;99.90;;;;;;5033716;28;20645;-63
2023/04/27 05:53:05;;;;;;;9.03;8.23;;;5.70;99.90;;;;;;5033623;28;20504;-64
2023/04/27 05:55:31;;;;;;;9.80;8.80;;;5.80;99.90;;;;;;5032688;28;20544;-64
2023/04/27 05:57:57;;;;;;;12.13;8.57;;;5.90;1.00;;;;;;5033632;28;20203;-64
2023/04/27 06:00:23;;;;;;;10.80;8.83;;;6.10;1.00;;;;;;5033460;28;20179;-64
2023/04/27 06:02:50;;;;;;;9.70;8.47;;;6.20;1.00;;;;;;5033686;28;20297;-64
2023/04/27 06:05:15;;;;;;;11.80;8.77;;;6.40;1.00;;;;;;5034169;28;20176;-62
2023/04/27 06:07:42;;;;;;;9.13;8.27;;;6.70;1.00;;;;;;5033535;28;20190;-63
2023/04/27 06:10:09;;;;;;;11.93;9.83;;;7.10;1.00;;;;;;5033652;28;20511;-64
2023/04/27 06:12:34;;;;;;;10.57;8.17;;;7.40;1.00;;;;;;5033572;28;20183;-63
2023/04/27 06:15:02;;;;;;;10.93;8.53;;;7.90;1.00;;;;;;5033856;28;20675;-63
2023/04/27 06:17:28;;;;;;;9.90;8.13;;;8.30;1.00;;;;;;5033140;28;20601;-63
2023/04/27 06:19:53;;;;;;;8.53;7.73;;;8.70;1.00;;;;;;5033115;28;20225;-63
2023/04/27 06:22:19;;;;;;;8.47;6.87;;;9.10;1.00;;;;;;5033616;28;20183;-65
2023/04/27 06:24:45;;;;;;;7.33;6.67;;;9.50;99.90;;;;;;5033536;28;20172;-64
2023/04/27 06:27:12;;;;;;;7.37;6.73;;;9.70;99.90;;;;;;5033404;28;20187;-65
2023/04/27 06:29:37;;;;;;;8.53;6.77;;;9.90;99.90;;;;;;5033003;28;20188;-65
2023/04/27 06:32:05;;;;;;;7.97;7.23;;;10.10;99.90;;;;;;5033134;28;20209;-65
2023/04/27 06:34:32;;;;;;;7.63;6.87;;;10.10;99.90;;;;;;5032953;28;20176;-64
2023/04/27 06:36:57;;;;;;;8.87;6.70;;;10.30;99.90;;;;;;5033478;28;20194;-65
2023/04/27 06:39:23;;;;;;;10.50;7.20;;;10.60;99.90;;;;;;5032717;28;20772;-64
2023/04/27 06:41:49;;;;;;;7.57;6.77;;;11.10;99.90;;;;;;5033077;28;20202;-65
2023/04/27 06:44:14;;;;;;;7.30;6.70;;;11.50;99.90;;;;;;5032808;28;20203;-65
2023/04/27 06:46:40;;;;;;;9.30;7.13;;;11.80;99.90;;;;;;5032087;28;20179;-65
2023/04/27 06:49:05;;;;;;;8.07;6.80;;;12.20;99.90;;;;;;5032736;28;20257;-63
2023/04/27 06:51:31;;;;;;;7.97;7.17;;;12.50;99.90;;;;;;5032897;28;20176;-63
2023/04/27 06:53:56;;;;;;;8.10;7.23;;;12.80;99.90;;;;;;5032673;28;20183;-63
2023/04/27 06:56:22;;;;;;;7.13;6.43;;;13.20;99.90;;;;;;5033161;28;20549;-63
2023/04/27 06:58:48;;;;;;;13.70;7.60;;;13.40;99.90;;;;;;5032667;28;20676;-63
2023/04/27 07:01:13;;;;;;;8.33;6.97;;;13.40;99.90;;;;;;5032611;28;20202;-63
2023/04/27 07:03:39;;;;;;;7.37;6.50;;;13.50;99.90;;;;;;5032325;28;20207;-63
2023/04/27 07:06:05;;;;;;;7.40;6.70;;;13.70;99.90;;;;;;5032945;28;20183;-63
2023/04/27 07:08:31;;;;;;;7.40;6.67;;;13.80;99.90;;;;;;5032739;28;20287;-63
2023/04/27 07:10:57;;;;;;;11.53;6.30;;;13.80;99.90;;;;;;5030510;28;20270;-63
2023/04/27 07:13:22;;;;;;;9.57;6.80;;;14.10;99.90;;;;;;5032840;28;20642;-63
2023/04/27 07:15:54;;;;;;;8.63;6.80;;;14.30;99.90;;;;;;5032374;28;20195;-63
2023/04/27 07:18:19;;;;;;;7.73;6.93;;;14.30;99.90;;;;;;5032627;28;20677;-64
2023/04/27 07:20:45;;;;;;;8.00;7.30;;;14.60;99.90;;;;;;5030280;28;20207;-63
2023/04/27 07:23:10;;;;;;;7.90;7.10;;;14.80;99.90;;;;;;5032538;28;20203;-63
2023/04/27 07:25:36;;;;;;;7.57;6.77;;;14.70;99.90;;;;;;5031966;28;20242;-63
2023/04/27 07:28:03;;;;;;;7.53;6.83;;;14.40;99.90;;;;;;5032553;28;20265;-63
2023/04/27 07:30:29;;;;;;;7.43;6.50;;;14.20;99.90;;;;;;5031720;28;20237;-63
2023/04/27 07:32:55;;;;;;;10.57;7.93;;;14.30;99.90;;;;;;5032493;28;20175;-64
2023/04/27 07:35:21;;;;;;;8.57;7.23;;;14.30;99.90;;;;;;5031962;28;20183;-64
2023/04/27 07:37:47;;;;;;;8.87;6.90;;;14.70;99.90;;;;;;5031933;28;20711;-64
2023/04/27 07:40:15;;;;;;;8.07;6.43;;;15.00;99.90;;;;;;5031616;28;20179;-64
2023/04/27 07:42:41;;;;;;;6.97;5.83;;;15.20;99.90;;;;;;5029922;28;20575;-64
2023/04/27 07:45:08;;;;;;;7.47;5.80;;;15.40;99.90;;;;;;5030698;28;20186;-64
2023/04/27 07:47:34;;;;;;;8.80;6.27;;;15.90;99.90;;;;;;5032260;28;20178;-63
2023/04/27 07:49:59;;;;;;;8.47;6.10;;;16.30;99.90;;;;;;5031346;28;20484;-63
2023/04/27 07:52:25;;;;;;;7.67;6.87;;;17.00;99.90;;;;;;5031794;28;20175;-63
2023/04/27 07:54:51;;;;;;;7.80;7.00;;;17.10;99.90;;;;;;5031883;28;20172;-63
2023/04/27 07:57:16;;;;;;;8.07;6.80;;;17.10;99.90;;;;;;5031750;28;20262;-64
2023/04/27 07:59:42;;;;;;;7.07;6.28;;;17.50;99.90;;;;;;5031122;28;20207;-64
2023/04/27 08:02:08;;;;;;;8.82;6.65;;;17.60;99.90;;;;;;5031854;28;20171;-64
2023/04/27 08:04:33;;;;;;;8.90;6.57;;;17.60;99.90;;;;;;5031362;28;20267;-64
2023/04/27 08:06:59;;;;;;;7.47;6.75;;;17.70;99.90;;;;;;5030629;28;20178;-64
2023/04/27 08:09:25;;;;;;;10.23;6.35;;;17.90;99.90;;;;;;5031035;28;20210;-62
2023/04/27 08:11:51;;;;;;;7.35;6.45;;;18.20;99.90;;;;;;5031650;28;20167;-62
2023/04/27 08:14:16;;;;;;;9.68;7.25;;;18.50;99.90;;;;;;5029621;28;20185;-62
2023/04/27 08:16:43;;;;;;;9.32;7.15;;;18.60;99.90;;;;;;5031905;28;20195;-65
2023/04/27 08:19:09;;;;;;;8.90;6.82;;;18.60;99.90;;;;;;5031120;28;20219;-65
2023/04/27 08:21:38;;;;;;;7.82;7.13;;;18.10;99.90;;;;;;5031437;28;20171;-65
2023/04/27 08:24:05;;;;;;;7.32;6.45;;;17.80;99.90;;;;;;5027217;28;20216;-65
2023/04/27 08:26:31;;;;;;;8.02;6.50;;;18.00;99.90;;;;;;5031328;28;20270;-65
2023/04/27 08:28:58;;;;;;;6.90;6.22;;;18.20;99.90;;;;;;5031297;28;20215;-65
2023/04/27 08:31:24;;;;;;;9.65;6.50;;;18.30;99.90;;;;;;5031145;28;20582;-65
2023/04/27 08:33:51;;;;;;;7.93;6.55;;;18.20;99.90;;;;;;5030627;28;20187;-65
2023/04/27 08:36:17;;;;;;;9.85;6.95;;;18.20;99.90;;;;;;5031363;28;20222;-64
2023/04/27 08:38:43;;;;;;;13.13;6.80;;;18.20;99.90;;;;;;5031046;28;20253;-65
2023/04/27 08:41:09;;;;;;;8.77;6.87;;;18.30;99.90;;;;;;5031102;28;20176;-64
2023/04/27 08:43:35;;;;;;;10.82;6.78;;;18.00;99.90;;;;;;5031240;28;20581;-64
2023/04/27 08:46:01;;;;;;;10.00;6.38;;;18.30;99.90;;;;;;5030107;28;20545;-64
2023/04/27 08:48:27;;;;;;;8.50;5.87;;;18.30;99.90;;;;;;5030668;28;20218;-64
2023/04/27 08:50:54;;;;;;;7.70;5.97;;;18.30;99.90;;;;;;5030817;28;20179;-64
2023/04/27 08:53:21;;;;;;;7.40;5.97;;;18.50;99.90;;;;;;5031295;28;20171;-64
2023/04/27 08:55:47;;;;;;;11.80;6.93;;;18.80;99.90;;;;;;5030909;28;20187;-64
2023/04/27 08:58:13;;;;;;;7.85;6.20;;;19.10;99.90;;;;;;5031020;28;20208;-64
2023/04/27 09:00:42;;;;;;;7.32;6.03;;;18.70;99.90;;;;;;5029616;28;20171;-65
2023/04/27 09:03:20;;;;;;;8.68;6.25;;;18.90;99.90;;;;;;5031215;28;20257;-64
2023/04/27 09:05:46;;;;;;;10.32;6.40;;;19.20;99.90;;;;;;5030926;28;20262;-65
2023/04/27 09:08:12;;;;;;;7.30;5.90;;;19.10;99.90;;;;;;5030874;28;20195;-64
2023/04/27 09:10:51;;;;;;;6.88;5.53;;;19.60;99.90;;;;;;5034506;28;20629;-64
2023/04/27 09:13:17;;;;;;;7.28;5.53;;;20.60;99.90;;;;;;5035244;28;20186;-64
2023/04/27 09:15:45;;;;;;;7.63;5.40;;;21.50;99.90;;;;;;5034841;28;20182;-65
2023/04/27 09:18:18;;;;;;;7.78;6.13;;;22.20;99.90;;;;;;5034892;28;20195;-65
2023/04/27 09:20:51;;;;;;;5.93;5.32;;;22.40;99.90;;;;;;5034206;28;20524;-65
2023/04/27 09:23:30;;;;;;;7.32;5.50;;;22.40;99.90;;;;;;5034926;28;20207;-66
2023/04/27 09:25:58;;;;;;;6.68;5.45;;;22.10;99.90;;;;;;5034765;28;20174;-65
2023/04/27 09:28:27;;;;;;;6.20;5.53;;;22.30;99.90;;;;;;5034637;28;20211;-65
2023/04/27 09:30:54;;;;;;;6.35;5.20;;;22.70;1.00;;;;;;5034854;28;20172;-65
2023/04/27 09:33:24;;;;;;;7.05;5.72;;;22.50;1.00;;;;;;5034862;28;20263;-65
2023/04/27 09:35:50;;;;;;;6.75;5.65;;;22.60;99.90;;;;;;5034061;28;20175;-65
2023/04/27 09:38:18;;;;;;;6.30;5.20;;;23.00;1.00;;;;;;5034583;28;20192;-66
2023/04/27 09:40:43;;;;;;;5.63;4.97;;;23.40;99.90;;;;;;5033919;28;20175;-65
2023/04/27 09:43:09;;;;;;;6.50;5.85;;;23.80;99.90;;;;;;5034445;28;20210;-65
2023/04/27 09:45:36;;;;;;;5.68;5.07;;;23.10;99.90;;;;;;5034731;28;20176;-65
2023/04/27 09:48:04;;;;;;;6.97;4.95;;;22.70;99.90;;;;;;5031885;28;20204;-65
2023/04/27 09:50:33;;;;;;;7.53;5.85;;;22.70;99.90;;;;;;5033874;28;20657;-65
2023/04/27 09:52:59;;;;;;;7.45;5.40;;;22.90;99.90;;;;;;5034084;28;20236;-65
2023/04/27 09:55:31;;;;;;;6.10;5.10;;;22.50;99.90;;;;;;5034309;28;20603;-65
2023/04/27 09:58:21;;;;;;;9.45;5.68;;;22.40;99.90;;;;;;5033851;28;20705;-65
2023/04/27 10:01:09;;;;;;;6.68;5.28;;;22.40;99.90;;;;;;5033960;28;20541;-65
2023/04/27 10:04:16;;;;;;;6.70;5.50;;;21.80;99.90;;;;;;5014139;28;20196;-65
2023/04/27 10:07:03;;;;;;;10.85;5.28;;;21.10;1.00;;;;;;5014812;28;20199;-66
2023/04/27 10:09:42;;;;;;;8.93;5.78;;;21.20;1.00;;;;;;5033637;28;20739;-62
2023/04/27 10:12:16;;;;;;;8.00;5.22;;;21.70;1.00;;;;;;5033822;28;20187;-64
2023/04/27 10:14:58;;;;;;;6.97;5.88;;;22.00;1.00;;;;;;5033587;28;20668;-63
2023/04/27 10:17:34;;;;;;;6.03;4.97;;;21.60;1.00;;;;;;5034047;28;20537;-63
2023/04/27 10:20:02;;;;;;;5.95;5.28;;;21.40;99.90;;;;;;5031900;28;20266;-64
2023/04/27 10:22:52;;;;;;;6.13;5.40;;;21.70;99.90;;;;;;5033740;28;20645;-63
2023/04/27 10:25:26;;;;;;;5.70;5.10;;;21.50;99.90;;;;;;5033635;28;20203;-62
2023/04/27 10:27:54;;;;;;;5.55;5.05;;;21.40;99.90;;;;;;5033530;28;20302;-63
2023/04/27 10:30:21;;;;;;;5.57;5.07;;;21.30;99.90;;;;;;5032772;28;20178;-64
2023/04/27 10:32:55;;;;;;;9.57;5.72;;;21.30;99.90;;;;;;5033084;28;20198;-64
2023/04/27 10:35:41;;;;;;;6.70;6.10;;;21.10;99.90;;;;;;5033721;28;20550;-63
2023/04/27 10:38:15;;;;;;;6.18;5.45;;;20.90;99.90;;;;;;5033102;28;20712;-64
2023/04/27 10:40:43;;;;;;;5.63;5.13;;;21.10;99.90;;;;;;5033136;28;20184;-64
2023/04/27 10:43:17;;;;;;;7.90;5.22;;;21.70;99.90;;;;;;5033448;28;20685;-64
2023/04/27 10:45:43;;;;;;;9.60;6.10;;;22.10;99.90;;;;;;5033169;28;20179;-64
2023/04/27 10:48:14;;;;;;;6.50;5.38;;;22.00;99.90;;;;;;5032806;28;20199;-64
2023/04/27 10:50:41;;;;;;;6.22;5.15;;;21.90;99.90;;;;;;5032643;28;20175;-64
2023/04/27 10:53:07;;;;;;;5.40;4.93;;;22.10;99.90;;;;;;5031201;28;20209;-64
2023/04/27 10:55:34;;;;;;;6.95;5.95;;;22.30;99.90;;;;;;5033223;28;20183;-63
2023/04/27 10:58:00;;;;;;;6.30;5.63;;;22.20;99.90;;;;;;5032865;28;20200;-64
2023/04/27 11:00:28;;;;;;;9.43;6.15;;;21.80;99.90;;;;;;5033144;28;20712;-64
2023/04/27 11:02:56;;;;;;;5.90;5.32;;;22.00;99.90;;;;;;5032856;28;20582;-63
2023/04/27 11:05:24;;;;;;;6.53;5.68;;;22.30;99.90;;;;;;5033104;28;20223;-63
2023/04/27 11:07:51;;;;;;;6.03;5.43;;;22.70;99.90;;;;;;5032663;28;20234;-63
2023/04/27 11:10:17;;;;;;;6.28;5.68;;;22.90;99.90;;;;;;5032422;28;20198;-63
2023/04/27 11:12:44;;;;;;;7.10;5.75;;;22.80;99.90;;;;;;5032577;28;20225;-63
2023/04/27 11:15:10;;;;;;;6.85;6.25;;;22.30;99.90;;;;;;5032989;28;20176;-63
2023/04/27 11:17:36;;;;;;;6.18;5.50;;;22.20;99.90;;;;;;5032427;28;20190;-63
2023/04/27 11:20:04;;;;;;;5.78;5.18;;;22.10;99.90;;;;;;5031517;28;20640;-63
2023/04/27 11:22:30;;;;;;;6.70;5.97;;;21.50;99.90;;;;;;5031292;28;20183;-63
2023/04/27 11:24:55;;;;;;;6.35;5.75;;;21.10;99.90;;;;;;5030612;28;20764;-64
2023/04/27 11:27:22;;;;;;;7.25;5.82;;;21.40;99.90;;;;;;5032401;28;20226;-63
2023/04/27 11:29:48;;;;;;;8.98;6.60;;;21.50;99.90;;;;;;5032069;28;20222;-63
2023/04/27 11:32:19;;;;;;;7.35;6.53;;;21.20;99.90;;;;;;5031470;28;20238;-63
2023/04/27 11:34:53;;;;;;;7.88;5.82;;;21.30;99.90;;;;;;5031825;28;20187;-64
2023/04/27 11:37:25;;;;;;;7.30;6.60;;;21.50;99.90;;;;;;5032047;28;20175;-63
2023/04/27 11:39:52;;;;;;;9.05;6.22;;;21.30;99.90;;;;;;5031667;28;20191;-64
2023/04/27 11:42:27;;;;;;;6.55;5.97;;;21.00;99.90;;;;;;5031868;28;20325;-64
2023/04/27 11:44:54;;;;;;;7.35;6.55;;;20.50;99.90;;;;;;5032284;28;20163;-63
2023/04/27 11:47:21;;;;;;;8.02;7.32;;;20.60;99.90;;;;;;5030615;28;20178;-64
2023/04/27 11:49:58;;;;;;;6.40;5.85;;;21.00;99.90;;;;;;5012125;28;20200;-63
2023/04/27 11:52:28;;;;;;;9.43;6.47;;;21.20;99.90;;;;;;5015507;28;20727;-64
2023/04/27 11:54:55;;;;;;;6.95;6.25;;;21.40;99.90;;;;;;5032120;28;20182;-63
2023/04/27 11:57:30;;;;;;;9.75;6.05;;;21.70;99.90;;;;;;5031846;28;20214;-63
2023/04/27 11:59:58;;;;;;;6.07;5.50;;;21.80;99.90;;;;;;5031736;28;20182;-63
2023/04/27 12:02:25;;;;;;;9.15;6.57;;;21.80;99.90;;;;;;5031669;28;20630;-63
2023/04/27 12:04:51;;;;;;;7.50;5.47;;;21.90;99.90;;;;;;5032093;28;20292;-63
2023/04/27 12:07:18;;;;;;;6.75;5.85;;;22.00;99.90;;;;;;5031689;28;20238;-63
2023/04/27 12:09:43;;;;;;;6.60;5.10;;;21.70;99.90;;;;;;5031438;28;20564;-63
2023/04/27 12:12:10;;;;;;;6.10;5.47;;;21.80;99.90;;;;;;5031688;28;20176;-64
2023/04/27 12:14:36;;;;;;;7.50;5.97;;;21.70;99.90;;;;;;5031487;28;20172;-63
2023/04/27 12:17:01;;;;;;;6.97;6.28;;;21.50;99.90;;;;;;5031379;28;20175;-63
2023/04/27 12:19:27;;;;;;;7.15;5.75;;;21.30;99.90;;;;;;5031357;28;20249;-64
2023/04/27 12:21:53;;;;;;;5.95;5.45;;;21.40;99.90;;;;;;5031636;28;20668;-63
2023/04/27 12:24:20;;;;;;;10.32;5.60;;;21.40;99.90;;;;;;5031595;28;20238;-63
2023/04/27 12:26:47;;;;;;;8.02;5.70;;;21.30;99.90;;;;;;5031024;28;20202;-64
2023/04/27 12:29:12;;;;;;;8.90;6.00;;;21.40;99.90;;;;;;5031070;28;20264;-64
2023/04/27 12:31:38;;;;;;;9.32;6.15;;;21.70;99.90;;;;;;5031173;28;20577;-64
2023/04/27 12:34:04;;;;;;;7.00;5.45;;;22.10;99.90;;;;;;5031400;28;20210;-63
2023/04/27 12:36:30;;;;;;;7.43;5.75;;;22.40;99.90;;;;;;5030981;28;20175;-63
2023/04/27 12:39:18;;;;;;;7.93;5.88;;;22.30;99.90;;;;;;5031954;28;20665;-63
2023/04/27 12:41:45;;;;;;;6.88;5.90;;;21.80;99.90;;;;;;5030894;28;20274;-63
2023/04/27 12:44:11;;;;;;;7.25;5.63;;;22.30;99.90;;;;;;5030504;28;20265;-64
2023/04/27 12:46:38;;;;;;;10.25;5.28;;;22.40;99.90;;;;;;5030817;28;20183;-65
2023/04/27 12:49:05;;;;;;;7.28;6.32;;;22.20;99.90;;;;;;5031227;28;20300;-64
2023/04/27 12:51:31;;;;;;;6.20;5.60;;;22.10;99.90;;;;;;5030434;28;20703;-65
2023/04/27 12:53:57;;;;;;;7.28;6.15;;;21.90;99.90;;;;;;5031677;28;20241;-64